Pride — ZDFD7 — position and weather

sailwx.info

Track history (hours):
 
Tides and Currents Weather Stations Pressure Air Temp Water Temp Dewpoint Dewpoint Depression Visibility Wind Speed Wind Dir Waves Ship Positions

Pride

Last reported at 2017-Jan-14 07:04 UTC. Time now 2017-Jan-17 19:15 UTC.
Position N 50°29' W 000°21'.

Length 88 m; draft 5 m.

Type: Cargo ship. MMSI: 236166000.

Date/timePositionNaut miles runAvg speedWind from/ knotsBaromVisibWave heightAir tempDewpointWater temp
2017-Jan-14 07:04N 50°29' W 000°21'4 8.7
2017-Jan-14 06:33N 50°30' W 000°14'10 9.8
2017-Jan-14 05:33N 50°33' E 000°01'1010.5
2017-Jan-14 04:34N 50°36' E 000°17'1010.4
2017-Jan-14 03:33N 50°39' E 000°33'35 8.7
2017-Jan-13 23:31N 50°59' E 001°17'9 9.8
2017-Jan-13 22:33N 51°05' E 001°29'1212.1
2017-Jan-13 21:33N 51°13' E 001°44'1211.7
2017-Jan-13 20:34N 51°23' E 001°54'1010.2
2017-Jan-13 19:33N 51°31' E 002°03'10 9.1
2017-Jan-13 18:25N 51°39' E 002°13'257 6.3
2017-Jan-12 01:17N 54°01' E 008°09'4 5.2
2017-Jan-12 00:33N 54°01' E 008°15'6 5.7
2017-Jan-11 23:33N 53°60' E 008°25'7 6.5
2017-Jan-11 22:33N 53°58' E 008°35'6 5.5
2017-Jan-11 21:33N 53°54' E 008°42'5 5.0
2017-Jan-11 20:33N 53°51' E 008°48'6 5.9
2017-Jan-11 19:33N 53°51' E 008°58'7 6.8
2017-Jan-11 18:34N 53°53' E 009°09'0 0.3
2017-Jan-11 17:33N 53°52' E 009°09'0 0.4
2017-Jan-11 16:33N 53°53' E 009°08'0 0.1
2017-Jan-11 15:32N 53°53' E 009°08'0 0.1
2017-Jan-11 14:31N 53°53' E 009°09'0 0.1
2017-Jan-11 13:31N 53°53' E 009°09'1 1.2
2017-Jan-11 12:33N 53°54' E 009°09'2 1.7
2017-Jan-11 11:33N 53°55' E 009°11'0 0.0
2017-Jan-11 10:33N 53°55' E 009°11'0 0.0
2017-Jan-11 09:33N 53°55' E 009°11'6 5.8
2017-Jan-11 08:33N 53°59' E 009°17'65 5.9
2017-Jan-10 21:33N 54°35' E 010°49'10 9.6
2017-Jan-10 20:33N 54°36' E 011°06'1110.9
2017-Jan-10 19:33N 54°32' E 011°23'67 1.3
2017-Jan-08 17:12N 55°11' E 012°58'7 9.3
2017-Jan-08 16:29N 55°15' E 012°49'8 8.2
2017-Jan-08 15:34N 55°20' E 012°38'10 9.7
2017-Jan-08 14:33N 55°30' E 012°41'9 9.3
2017-Jan-08 13:33N 55°39' E 012°41'10 9.7
2017-Jan-08 12:34N 55°49' E 012°41'9 9.2
2017-Jan-08 11:34N 55°58' E 012°38'8 7.6
2017-Jan-08 10:34N 56°05' E 012°34'8 7.7
2017-Jan-08 09:33N 56°10' E 012°23'48 9.2
2017-Jan-08 04:23N 56°53' E 011°46'18 9.6
2017-Jan-08 02:33N 57°09' E 011°35'10 9.7
2017-Jan-08 01:33N 57°18' E 011°29'10 9.8
2017-Jan-08 00:34N 57°27' E 011°23'10 9.9
2017-Jan-07 23:34N 57°34' E 011°10'1010.0
2017-Jan-07 22:33N 57°41' E 010°56'10 9.8
2017-Jan-07 21:33N 57°47' E 010°41'43910.1
2017-Jan-06 02:16N 53°35' E 000°04'912.5
2017-Jan-06 01:33N 53°38' W 000°10'1110.5
2017-Jan-06 00:33N 53°42' W 000°26'  
Track history (hours):
 
Tides and Currents Weather Stations Pressure Air Temp Water Temp Dewpoint Dewpoint Depression Visibility Wind Speed Wind Dir Waves Ship Positions

Pride

Last reported at 2017-Jan-14 07:04 UTC. Time now 2017-Jan-17 19:15 UTC.
Position N 50°29' W 000°21'.

Length 88 m; draft 5 m.

Type: Cargo ship. MMSI: 236166000.

Date/timePositionNaut miles runAvg speedWind from/ knotsBaromVisibWave heightAir tempDewpointWater temp
2017-Jan-14 07:04N 50°29' W 000°21'4 8.7
2017-Jan-14 06:33N 50°30' W 000°14'10 9.8
2017-Jan-14 05:33N 50°33' E 000°01'1010.5
2017-Jan-14 04:34N 50°36' E 000°17'1010.4
2017-Jan-14 03:33N 50°39' E 000°33'35 8.7
2017-Jan-13 23:31N 50°59' E 001°17'9 9.8
2017-Jan-13 22:33N 51°05' E 001°29'1212.1
2017-Jan-13 21:33N 51°13' E 001°44'1211.7
2017-Jan-13 20:34N 51°23' E 001°54'1010.2
2017-Jan-13 19:33N 51°31' E 002°03'10 9.1
2017-Jan-13 18:25N 51°39' E 002°13'257 6.3
2017-Jan-12 01:17N 54°01' E 008°09'4 5.2
2017-Jan-12 00:33N 54°01' E 008°15'6 5.7
2017-Jan-11 23:33N 53°60' E 008°25'7 6.5
2017-Jan-11 22:33N 53°58' E 008°35'6 5.5
2017-Jan-11 21:33N 53°54' E 008°42'5 5.0
2017-Jan-11 20:33N 53°51' E 008°48'6 5.9
2017-Jan-11 19:33N 53°51' E 008°58'7 6.8
2017-Jan-11 18:34N 53°53' E 009°09'0 0.3
2017-Jan-11 17:33N 53°52' E 009°09'0 0.4
2017-Jan-11 16:33N 53°53' E 009°08'0 0.1
2017-Jan-11 15:32N 53°53' E 009°08'0 0.1
2017-Jan-11 14:31N 53°53' E 009°09'0 0.1
2017-Jan-11 13:31N 53°53' E 009°09'1 1.2
2017-Jan-11 12:33N 53°54' E 009°09'2 1.7
2017-Jan-11 11:33N 53°55' E 009°11'0 0.0
2017-Jan-11 10:33N 53°55' E 009°11'0 0.0
2017-Jan-11 09:33N 53°55' E 009°11'6 5.8
2017-Jan-11 08:33N 53°59' E 009°17'65 5.9
2017-Jan-10 21:33N 54°35' E 010°49'10 9.6
2017-Jan-10 20:33N 54°36' E 011°06'1110.9
2017-Jan-10 19:33N 54°32' E 011°23'67 1.3
2017-Jan-08 17:12N 55°11' E 012°58'7 9.3
2017-Jan-08 16:29N 55°15' E 012°49'8 8.2
2017-Jan-08 15:34N 55°20' E 012°38'10 9.7
2017-Jan-08 14:33N 55°30' E 012°41'9 9.3
2017-Jan-08 13:33N 55°39' E 012°41'10 9.7
2017-Jan-08 12:34N 55°49' E 012°41'9 9.2
2017-Jan-08 11:34N 55°58' E 012°38'8 7.6
2017-Jan-08 10:34N 56°05' E 012°34'8 7.7
2017-Jan-08 09:33N 56°10' E 012°23'48 9.2
2017-Jan-08 04:23N 56°53' E 011°46'18 9.6
2017-Jan-08 02:33N 57°09' E 011°35'10 9.7
2017-Jan-08 01:33N 57°18' E 011°29'10 9.8
2017-Jan-08 00:34N 57°27' E 011°23'10 9.9
2017-Jan-07 23:34N 57°34' E 011°10'1010.0
2017-Jan-07 22:33N 57°41' E 010°56'10 9.8
2017-Jan-07 21:33N 57°47' E 010°41'43910.1
2017-Jan-06 02:16N 53°35' E 000°04'912.5
2017-Jan-06 01:33N 53°38' W 000°10'1110.5
2017-Jan-06 00:33N 53°42' W 000°26'  

Dump ship's entire track history